PWSweather.com
Personal Weather Stations
Station Observations
PWSLORIS
The Farm At Fox Bay, Loris, SC 29569

The Farm At Fox BayLoris, SC 29569

Lat: 34.067097, Lon: -78.86907

Elevation: 108

Station Type: Davis Vantage Pro2 with 24 hr. FARS and solar

http://www.lorisweather.com

Latest ConditionsUpdated 8:45:01 PM EST Wednesday, Jan 16, 2019
Currently Today's Max Today's Min Today's Average
Temperature 38.5°F3.6°C 56.0°F13.3°C 34.1°F1.2°C 45.0°F7.2°C
Dew Point 33.8°F1.0°C 41.6°F5.3°C 30.6°F-0.8°C 35.7°F2.1°C
Winds Calm Calm 3.5 mph -5.6 kmh - - 0.4 mph 0.6 kmh
Wind Gusts -- 6.9 mph11.1 kmh - -
Humidity 83% 87% 44% 72%
Pressure 30.24 in1024.0 mb 30.27 in1025.1 mb 30.17 in1021.7 mb -
Hour Temp Dew Point Humidity Winds Wind Gusts Pressure Precip Precip Rate Daily Precip Total
08:45 PM 38.5°F3.6°C 33.8°F1.0°C 83% Calm Calm -- 30.24 in1024.0 mb - 0.00 in0.0 mm 0.00 in0.0 mm
08:30 PM 38.5°F3.6°C 33.5°F0.8°C 82% Calm Calm -- 30.23 in1023.7 mb - 0.00 in0.0 mm 0.00 in0.0 mm
08:15 PM 38.7°F3.7°C 33.7°F0.9°C 82% Calm Calm -- 30.23 in1023.7 mb - 0.00 in0.0 mm 0.00 in0.0 mm
08:00 PM 39.1°F3.9°C 33.5°F0.8°C 80% Calm Calm -- 30.23 in1023.7 mb - 0.00 in0.0 mm 0.00 in0.0 mm
07:45 PM 39.5°F4.2°C 32.9°F0.5°C 77% Calm Calm -- 30.23 in1023.7 mb - 0.00 in0.0 mm 0.00 in0.0 mm
07:30 PM 40.5°F4.7°C 33.2°F0.7°C 75% Calm Calm -- 30.23 in1023.7 mb - 0.00 in0.0 mm 0.00 in0.0 mm
07:15 PM 41.1°F5.1°C 33.4°F0.8°C 74% Calm Calm -- 30.22 in1023.4 mb - 0.00 in0.0 mm 0.00 in0.0 mm
07:00 PM 41.8°F5.4°C 33.4°F0.8°C 72% Calm Calm -- 30.21 in1023.0 mb - 0.00 in0.0 mm 0.00 in0.0 mm
06:45 PM 42.5°F5.8°C 34.1°F1.2°C 72% Calm Calm -- 30.21 in1023.0 mb - 0.00 in0.0 mm 0.00 in0.0 mm
06:30 PM 43.1°F6.2°C 35.1°F1.7°C 73% Calm Calm -- 30.20 in1022.7 mb - 0.00 in0.0 mm 0.00 in0.0 mm
06:15 PM 44.3°F6.8°C 35.1°F1.7°C 70% Calm Calm -- 30.19 in1022.4 mb - 0.00 in0.0 mm 0.00 in0.0 mm
06:00 PM 45.2°F7.3°C 36.0°F2.2°C 70% Calm Calm -- 30.18 in1022.0 mb - 0.00 in0.0 mm 0.00 in0.0 mm
05:45 PM 46.1°F7.8°C 36.5°F2.5°C 69% Calm Calm -- 30.18 in1022.0 mb - 0.00 in0.0 mm 0.00 in0.0 mm
05:30 PM 47.9°F8.8°C 36.7°F2.6°C 65% Calm Calm -- 30.18 in1022.0 mb - 0.00 in0.0 mm 0.00 in0.0 mm
05:15 PM 49.5°F9.7°C 36.2°F2.3°C 60% Calm Calm -- 30.18 in1022.0 mb - 0.00 in0.0 mm 0.00 in0.0 mm
05:00 PM 51.1°F10.6°C 37.3°F2.9°C 59% Calm Calm -- 30.17 in1021.7 mb - 0.00 in0.0 mm 0.00 in0.0 mm
04:45 PM 53.1°F11.7°C 34.9°F1.6°C 50% Calm Calm -- 30.18 in1022.0 mb - 0.00 in0.0 mm 0.00 in0.0 mm
04:30 PM 53.7°F12.1°C 34.5°F1.4°C 48% Calm Calm 1.2 mph1.9 kmh 30.17 in1021.7 mb - 0.00 in0.0 mm 0.00 in0.0 mm
04:15 PM 54.3°F12.4°C 32.8°F0.4°C 44% 1.2 mph NW1.9 kmh NW 3.5 mph5.6 kmh 30.18 in1022.0 mb - 0.00 in0.0 mm 0.00 in0.0 mm
04:00 PM 54.7°F12.6°C 33.8°F1.0°C 45% Calm Calm -- 30.17 in1021.7 mb - 0.00 in0.0 mm 0.00 in0.0 mm
03:45 PM 55.0°F12.8°C 34.0°F1.1°C 45% Calm Calm -- 30.18 in1022.0 mb - 0.00 in0.0 mm 0.00 in0.0 mm
03:30 PM 54.9°F12.7°C 33.9°F1.1°C 45% Calm Calm 3.5 mph5.6 kmh 30.18 in1022.0 mb - 0.00 in0.0 mm 0.00 in0.0 mm
03:15 PM 55.2°F12.9°C 33.6°F0.9°C 44% 1.2 mph SW1.9 kmh SW 3.5 mph5.6 kmh 30.18 in1022.0 mb - 0.00 in0.0 mm 0.00 in0.0 mm
03:00 PM 55.6°F13.1°C 34.0°F1.1°C 44% Calm Calm 3.5 mph5.6 kmh 30.18 in1022.0 mb - 0.00 in0.0 mm 0.00 in0.0 mm
02:45 PM 55.7°F13.2°C 34.7°F1.5°C 45% Calm Calm -- 30.18 in1022.0 mb - 0.00 in0.0 mm 0.00 in0.0 mm
02:30 PM 56.0°F13.3°C 34.4°F1.3°C 44% 2.3 mph NW3.7 kmh NW 3.5 mph5.6 kmh 30.18 in1022.0 mb - 0.00 in0.0 mm 0.00 in0.0 mm
02:15 PM 55.5°F13.1°C 33.9°F1.1°C 44% 1.2 mph NW1.9 kmh NW 3.5 mph5.6 kmh 30.18 in1022.0 mb - 0.00 in0.0 mm 0.00 in0.0 mm
02:00 PM 55.3°F12.9°C 34.8°F1.6°C 46% 1.2 mph WSW1.9 kmh WSW 3.5 mph5.6 kmh 30.18 in1022.0 mb - 0.00 in0.0 mm 0.00 in0.0 mm
01:45 PM 54.0°F12.2°C 34.8°F1.6°C 48% 1.2 mph NW1.9 kmh NW 3.5 mph5.6 kmh 30.18 in1022.0 mb - 0.00 in0.0 mm 0.00 in0.0 mm
01:30 PM 54.7°F12.6°C 34.3°F1.3°C 46% 3.5 mph W5.6 kmh W 6.9 mph11.1 kmh 30.19 in1022.4 mb - 0.00 in0.0 mm 0.00 in0.0 mm
01:15 PM 54.7°F12.6°C 34.3°F1.3°C 46% 2.3 mph NW3.7 kmh NW 3.5 mph5.6 kmh 30.19 in1022.4 mb - 0.00 in0.0 mm 0.00 in0.0 mm
01:00 PM 55.0°F12.8°C 35.1°F1.7°C 47% Calm Calm -- 30.20 in1022.7 mb - 0.00 in0.0 mm 0.00 in0.0 mm
12:45 PM 55.1°F12.8°C 35.7°F2.1°C 48% 3.5 mph NNW5.6 kmh NNW 6.9 mph11.1 kmh 30.20 in1022.7 mb - 0.00 in0.0 mm 0.00 in0.0 mm
12:30 PM 54.5°F12.5°C 34.6°F1.4°C 47% 2.3 mph NW3.7 kmh NW 5.8 mph9.3 kmh 30.21 in1023.0 mb - 0.00 in0.0 mm 0.00 in0.0 mm
12:15 PM 54.1°F12.3°C 35.8°F2.1°C 50% 1.2 mph E1.9 kmh E -- 30.22 in1023.4 mb - 0.00 in0.0 mm 0.00 in0.0 mm
12:00 PM 54.1°F12.3°C 39.6°F4.2°C 58% Calm Calm 3.5 mph5.6 kmh 30.22 in1023.4 mb - 0.00 in0.0 mm 0.00 in0.0 mm
11:45 AM 52.8°F11.6°C 39.7°F4.3°C 61% 3.5 mph S5.6 kmh S 5.8 mph9.3 kmh 30.23 in1023.7 mb - 0.00 in0.0 mm 0.00 in0.0 mm
11:30 AM 53.6°F12.0°C 40.4°F4.7°C 61% Calm Calm 1.2 mph1.9 kmh 30.24 in1024.0 mb - 0.00 in0.0 mm 0.00 in0.0 mm
11:15 AM 51.7°F10.9°C 39.9°F4.4°C 64% 1.2 mph WNW1.9 kmh WNW -- 30.25 in1024.4 mb - 0.00 in0.0 mm 0.00 in0.0 mm
11:00 AM 52.0°F11.1°C 41.0°F5.0°C 66% 2.3 mph NW3.7 kmh NW 6.9 mph11.1 kmh 30.26 in1024.7 mb - 0.00 in0.0 mm 0.00 in0.0 mm
10:45 AM 51.1°F10.6°C 41.3°F5.2°C 69% Calm Calm -- 30.27 in1025.1 mb - 0.00 in0.0 mm 0.00 in0.0 mm
10:30 AM 49.5°F9.7°C 41.6°F5.3°C 74% 1.2 mph NW1.9 kmh NW 1.2 mph1.9 kmh 30.26 in1024.7 mb - 0.00 in0.0 mm 0.00 in0.0 mm
10:15 AM 48.2°F9.0°C 41.3°F5.2°C 77% 2.3 mph NW3.7 kmh NW 4.6 mph7.4 kmh 30.27 in1025.1 mb - 0.00 in0.0 mm 0.00 in0.0 mm
10:00 AM 46.4°F8.0°C 40.9°F4.9°C 81% Calm Calm 1.2 mph1.9 kmh 30.26 in1024.7 mb - 0.00 in0.0 mm 0.00 in0.0 mm
09:45 AM 44.4°F6.9°C 39.8°F4.3°C 84% Calm Calm 1.2 mph1.9 kmh 30.26 in1024.7 mb - 0.00 in0.0 mm 0.00 in0.0 mm
09:30 AM 43.1°F6.2°C 38.9°F3.8°C 85% 2.3 mph NNW3.7 kmh NNW 3.5 mph5.6 kmh 30.26 in1024.7 mb - 0.00 in0.0 mm 0.00 in0.0 mm
09:15 AM 44.3°F6.8°C 39.8°F4.3°C 84% 2.3 mph NW3.7 kmh NW 2.3 mph3.7 kmh 30.25 in1024.4 mb - 0.00 in0.0 mm 0.00 in0.0 mm
09:00 AM 43.0°F6.1°C 39.4°F4.1°C 87% Calm Calm -- 30.25 in1024.4 mb - 0.00 in0.0 mm 0.00 in0.0 mm
08:45 AM 40.3°F4.6°C 36.7°F2.6°C 87% Calm Calm -- 30.25 in1024.4 mb - 0.00 in0.0 mm 0.00 in0.0 mm
08:30 AM 38.0°F3.3°C 34.5°F1.4°C 87% Calm Calm -- 30.24 in1024.0 mb - 0.00 in0.0 mm 0.00 in0.0 mm
08:15 AM 35.7°F2.1°C 32.2°F0.1°C 87% Calm Calm -- 30.24 in1024.0 mb - 0.00 in0.0 mm 0.00 in0.0 mm
08:00 AM 34.6°F1.4°C 31.1°F-0.5°C 87% Calm Calm -- 30.24 in1024.0 mb - 0.00 in0.0 mm 0.00 in0.0 mm
07:45 AM 34.1°F1.2°C 30.6°F-0.8°C 87% Calm Calm -- 30.24 in1024.0 mb - 0.00 in0.0 mm 0.00 in0.0 mm
07:30 AM 34.2°F1.2°C 30.7°F-0.7°C 87% Calm Calm -- 30.23 in1023.7 mb - 0.00 in0.0 mm 0.00 in0.0 mm
07:15 AM 34.4°F1.3°C 30.6°F-0.8°C 86% Calm Calm -- 30.23 in1023.7 mb - 0.00 in0.0 mm 0.00 in0.0 mm
07:00 AM 35.0°F1.7°C 31.2°F-0.4°C 86% Calm Calm -- 30.22 in1023.4 mb - 0.00 in0.0 mm 0.00 in0.0 mm
06:45 AM 35.5°F1.9°C 31.7°F-0.2°C 86% Calm Calm -- 30.22 in1023.4 mb - 0.00 in0.0 mm 0.00 in0.0 mm
06:30 AM 36.2°F2.3°C 32.4°F0.2°C 86% Calm Calm -- 30.21 in1023.0 mb - 0.00 in0.0 mm 0.00 in0.0 mm
06:15 AM 36.7°F2.6°C 32.9°F0.5°C 86% Calm Calm -- 30.21 in1023.0 mb - 0.00 in0.0 mm 0.00 in0.0 mm
06:00 AM 37.5°F3.1°C 33.7°F0.9°C 86% Calm Calm -- 30.21 in1023.0 mb - 0.00 in0.0 mm 0.00 in0.0 mm
05:45 AM 38.0°F3.3°C 34.5°F1.4°C 87% Calm Calm -- 30.21 in1023.0 mb - 0.00 in0.0 mm 0.00 in0.0 mm
05:30 AM 38.0°F3.3°C 34.5°F1.4°C 87% Calm Calm -- 30.21 in1023.0 mb - 0.00 in0.0 mm 0.00 in0.0 mm
05:15 AM 37.6°F3.1°C 33.8°F1.0°C 86% Calm Calm -- 30.21 in1023.0 mb - 0.00 in0.0 mm 0.00 in0.0 mm
05:00 AM 37.4°F3.0°C 33.6°F0.9°C 86% Calm Calm -- 30.20 in1022.7 mb - 0.00 in0.0 mm 0.00 in0.0 mm
04:45 AM 37.6°F3.1°C 33.8°F1.0°C 86% Calm Calm -- 30.20 in1022.7 mb - 0.00 in0.0 mm 0.00 in0.0 mm
04:30 AM 38.0°F3.3°C 34.2°F1.2°C 86% Calm Calm -- 30.20 in1022.7 mb - 0.00 in0.0 mm 0.00 in0.0 mm
04:15 AM 38.5°F3.6°C 34.4°F1.3°C 85% Calm Calm -- 30.20 in1022.7 mb - 0.00 in0.0 mm 0.00 in0.0 mm
04:00 AM 39.3°F4.1°C 35.2°F1.8°C 85% Calm Calm -- 30.20 in1022.7 mb - 0.00 in0.0 mm 0.00 in0.0 mm
03:45 AM 40.7°F4.8°C 36.3°F2.4°C 84% Calm Calm -- 30.20 in1022.7 mb - 0.00 in0.0 mm 0.00 in0.0 mm
03:30 AM 42.0°F5.6°C 37.5°F3.1°C 84% Calm Calm -- 30.20 in1022.7 mb - 0.00 in0.0 mm 0.00 in0.0 mm
03:15 AM 42.2°F5.7°C 37.7°F3.2°C 84% Calm Calm -- 30.21 in1023.0 mb - 0.00 in0.0 mm 0.00 in0.0 mm
03:00 AM 42.2°F5.7°C 37.7°F3.2°C 84% Calm Calm -- 30.21 in1023.0 mb - 0.00 in0.0 mm 0.00 in0.0 mm
02:45 AM 42.3°F5.7°C 37.8°F3.2°C 84% Calm Calm -- 30.21 in1023.0 mb - 0.00 in0.0 mm 0.00 in0.0 mm
02:30 AM 42.4°F5.8°C 37.9°F3.3°C 84% Calm Calm -- 30.21 in1023.0 mb - 0.00 in0.0 mm 0.00 in0.0 mm
02:15 AM 42.4°F5.8°C 37.9°F3.3°C 84% Calm Calm -- 30.21 in1023.0 mb - 0.00 in0.0 mm 0.00 in0.0 mm
02:00 AM 42.5°F5.8°C 38.0°F3.3°C 84% Calm Calm -- 30.21 in1023.0 mb - 0.00 in0.0 mm 0.00 in0.0 mm
01:45 AM 42.5°F5.8°C 37.7°F3.2°C 83% Calm Calm -- 30.21 in1023.0 mb - 0.00 in0.0 mm 0.00 in0.0 mm
01:30 AM 42.4°F5.8°C 37.6°F3.1°C 83% Calm Calm -- 30.21 in1023.0 mb - 0.00 in0.0 mm 0.00 in0.0 mm
01:15 AM 42.5°F5.8°C 37.7°F3.2°C 83% Calm Calm -- 30.21 in1023.0 mb - 0.00 in0.0 mm 0.00 in0.0 mm
01:00 AM 42.8°F6.0°C 38.0°F3.3°C 83% Calm Calm -- 30.22 in1023.4 mb - 0.00 in0.0 mm 0.00 in0.0 mm
12:45 AM 42.5°F5.8°C 37.7°F3.2°C 83% Calm Calm -- 30.23 in1023.7 mb - 0.00 in0.0 mm 0.00 in0.0 mm
12:30 AM 42.6°F5.9°C 37.8°F3.2°C 83% Calm Calm -- 30.23 in1023.7 mb - 0.00 in0.0 mm 0.00 in0.0 mm
12:15 AM 42.5°F5.8°C 37.7°F3.2°C 83% Calm Calm -- 30.23 in1023.7 mb - 0.00 in0.0 mm 0.00 in0.0 mm
12:00 AM 42.6°F5.9°C 37.8°F3.2°C 83% Calm Calm -- 30.22 in1023.4 mb - 0.00 in0.0 mm 0.00 in0.0 mm